OXFORD AIRPORT | Local Weather
17097
page-template-default,page,page-id-17097,ajax_fade,page_not_loaded,,hide_top_bar_on_mobile_header,qode-child-theme-ver-1.0.0,qode-theme-ver-10.0,wpb-js-composer js-comp-ver-4.11.2.1,vc_responsive
 

LOCAL WEATHER

METAR & TAF for EGTK Oxford

Available data for EGTK from the past hour
OXFORD
Metar
EGTK 261550Z 27008KT 230V340 9999 FEW040 12/03 Q1032

15:50 UTC

Wind: 270° 8kt

Visibility: 9999 m

Sky: FEW 4000 ft

Temp: 12 deg C / 53.6 deg F

Dewpoint: 3 deg C / 37.4 deg F

Pressure: 1032 hPa

TAF
TAF EGTK 261357Z 2615/2623 30005KT 9999 SCT035